Latest Weather Observations for Ulladulla

IDN60901

Issued at 7:35 am EST Friday 1 August 2014 (issued every 10 minutes, with the page automatically refreshed every 10 minutes)

About weather observations | Map of Canberra area stations | Latest observations for Canberra area | Other Formats
Station Details ID: 069138 Name: ULLADULLA AWS Lat: -35.36 Lon: 150.48 Height: 35.7 m
Data from the previous 72 hours. | See also: Recent months at Ulladulla
Date/Time
EST
Tmp

°C
App
Tmp
°C
Dew
Point
°C
Rel
Hum
%
Delta-T

°C
Wind Press
QNH
hPa
Press
MSL
hPa
Rain
since
9 am
mm
Dir
 
Spd
km/h
Gust
km/h
Spd
kts
Gust
kts
01/07:30am 12.6 7.9 0.7 44 5.0 NW 15 24 8 13 1005.3 - 0.0
01/07:00am 12.9 9.5 3.8 54 4.1 NNW 11 17 6 9 1004.8 1004.8 0.0
01/06:30am 13.3 8.8 4.2 54 4.2 NW 17 26 9 14 1004.6 - 0.0
01/06:00am 13.7 9.2 4.3 53 4.3 NW 17 28 9 15 1004.0 1004.0 0.0
01/05:30am 14.1 9.6 4.1 51 4.6 NW 17 30 9 16 1003.6 - 0.0
01/05:00am 14.9 10.3 3.7 47 5.1 NW 17 35 9 19 1003.1 1003.1 0.0
01/04:30am 15.5 11.2 3.0 43 5.7 WNW 15 28 8 15 1002.7 - 0.0
01/04:00am 16.3 12.0 0.8 35 6.8 WNW 13 30 7 16 1002.6 1002.6 0.0
01/03:30am 17.2 12.9 -1.4 28 7.8 WNW 11 17 6 9 1002.3 - 0.0
01/03:00am 18.1 13.0 -1.7 26 8.4 NNW 15 26 8 14 1001.9 1001.9 0.0
01/02:30am 19.0 13.5 -2.0 24 8.8 NW 17 30 9 16 1001.7 - 0.0
01/02:00am 19.7 13.6 -2.6 22 9.4 NW 20 37 11 20 1001.5 1001.5 0.0
01/01:30am 20.2 12.5 -2.8 21 9.6 NNW 28 54 15 29 1000.6 - 0.0
01/01:01am 20.2 12.6 -2.2 22 9.5 NNW 28 48 15 26 1000.7 - 0.0
01/01:00am 20.2 12.2 -2.2 22 9.6 NNW 30 48 16 26 1000.7 1000.7 0.0
01/12:30am 20.2 11.8 -2.2 22 9.5 NNW 32 52 17 28 1000.7 - 0.0
01/12:12am 20.2 12.6 -2.2 22 9.6 NNW 28 50 15 27 1001.1 - 0.0
01/12:00am 20.0 12.8 -1.7 23 9.3 NNW 26 44 14 24 1001.3 1001.3 0.0
 
Date/Time
EST
Tmp

°C
App
Tmp
°C
Dew
Point
°C
Rel
Hum
%
Delta-T

°C
Wind Press
QNH
hPa
Press
MSL
hPa
Rain
since
9 am
mm
Dir
 
Spd
km/h
Gust
km/h
Spd
kts
Gust
kts
31/11:30pm 20.1 13.8 -1.1 24 9.2 NNW 22 41 12 22 1001.7 - 0.0
31/11:00pm 19.7 13.8 -0.9 25 9.0 NNW 20 33 11 18 1002.2 1002.2 0.0
31/10:30pm 19.8 14.2 -0.2 26 8.8 NNW 19 30 10 16 1002.6 - 0.0
31/10:00pm 19.9 14.4 0.4 27 8.7 NNW 19 32 10 17 1002.6 1002.6 0.0
31/09:30pm 19.8 14.3 0.8 28 8.5 NNW 19 33 10 18 1002.6 - 0.0
31/09:00pm 19.8 14.4 1.3 29 8.4 N 19 37 10 20 1002.6 1002.6 0.0
31/08:30pm 19.8 14.8 1.3 29 8.4 NNW 17 33 9 18 1002.4 - 0.0
31/08:00pm 20.1 14.5 1.5 29 8.5 NNW 20 39 11 21 1002.2 1002.2 0.0
31/07:30pm 19.8 14.6 2.2 31 8.1 N 19 35 10 19 1002.0 - 0.0
31/07:00pm 19.8 14.4 2.2 31 8.2 N 20 33 11 18 1001.6 1001.6 0.0
31/06:30pm 20.0 15.5 2.4 31 8.2 N 15 37 8 20 1002.0 - 0.0
31/06:04pm 20.2 13.2 2.1 30 8.4 NNW 28 54 15 29 1001.7 - 0.0
31/06:00pm 20.1 13.5 2.0 30 8.4 NNW 26 54 14 29 1001.8 1001.8 0.0
31/05:47pm 20.3 13.3 2.2 30 8.4 NNW 28 48 15 26 1001.6 - 0.0
31/05:30pm 20.1 14.2 2.0 30 8.3 NNW 22 39 12 21 1001.7 - 0.0
31/05:00pm 20.8 13.4 2.1 29 8.7 NNW 30 52 16 28 1001.3 1001.3 0.0
31/04:50pm 21.0 14.0 1.8 28 8.9 NNW 28 57 15 31 1001.3 - 0.0
31/04:30pm 21.4 16.0 2.2 28 9.0 NNW 20 46 11 25 1002.0 - 0.0
31/04:11pm 21.9 14.7 1.0 25 9.6 NNW 28 50 15 27 1002.0 - 0.0
31/04:00pm 21.9 16.4 1.6 26 9.5 NNW 20 37 11 20 1002.2 1002.2 0.0
31/03:30pm 22.3 14.0 -0.4 22 10.2 NNW 33 56 18 30 1002.2 - 0.0
31/03:00pm 22.2 13.6 0.1 23 10.0 NNW 35 67 19 36 1002.3 1002.3 0.0
31/02:30pm 22.5 14.4 -0.3 22 10.2 NNW 32 54 17 29 1003.0 - 0.0
31/02:27pm 22.4 15.1 0.3 23 10.0 NNW 28 54 15 29 1003.0 - 0.0
31/02:00pm 22.6 16.2 1.0 24 10.0 NNW 24 41 13 22 1003.7 1003.7 0.0
31/01:30pm 22.3 14.9 1.9 26 9.5 NNW 30 54 16 29 1004.0 - 0.0
31/01:00pm 22.3 15.3 1.9 26 9.6 NNW 28 48 15 26 1004.8 1004.8 0.0
31/12:30pm 22.4 14.9 1.4 25 9.7 NW 30 54 16 29 1005.5 - 0.0
31/12:02pm 22.1 15.1 1.7 26 9.5 NW 28 50 15 27 1006.5 - 0.0
31/12:00pm 22.0 15.4 2.2 27 9.3 NW 26 41 14 22 1006.6 1006.6 0.0
31/11:30am 21.5 14.6 2.7 29 8.9 NW 28 57 15 31 1007.4 - 0.0
31/11:08am 21.3 14.4 2.6 29 8.8 NW 28 46 15 25 1007.9 - 0.0
31/11:00am 21.1 14.2 2.4 29 8.8 NNW 28 43 15 23 1008.0 1008.0 0.0
31/10:32am 20.8 14.0 3.1 31 8.4 NW 28 48 15 26 1008.6 - 0.0
31/10:30am 20.7 14.3 3.0 31 8.4 NW 26 48 14 26 1008.4 - 0.0
31/10:00am 20.0 14.0 3.3 33 7.9 NNW 24 46 13 25 1009.2 1009.2 0.0
31/09:30am 18.0 14.4 6.8 48 5.6 N 15 28 8 15 1009.9 - 0.0
31/09:00am 16.9 13.2 6.4 50 5.2 N 15 26 8 14 1010.1 1010.1 0.0
31/08:30am 17.1 12.8 5.1 45 5.7 NNW 17 24 9 13 1010.4 - 0.0
31/08:00am 16.4 12.4 5.1 47 5.4 NNW 15 26 8 14 1010.7 1010.7 0.0
31/07:30am 15.8 13.1 5.4 50 5.0 N 9 15 5 8 1010.6 - 0.0
31/07:00am 15.4 11.6 5.9 53 4.6 N 15 22 8 12 1010.8 1010.8 0.0
31/06:30am 15.1 12.1 6.1 55 4.3 N 11 17 6 9 1011.0 - 0.0
31/06:00am 15.4 12.8 5.9 53 4.6 N 9 17 5 9 1010.9 1010.9 0.0
31/05:30am 15.4 13.2 6.2 54 4.5 N 7 15 4 8 1010.9 - 0.0
31/05:00am 15.7 12.0 6.4 54 4.5 N 15 30 8 16 1011.1 1011.1 0.0
31/04:30am 16.0 13.1 6.7 54 4.6 N 11 20 6 11 1011.1 - 0.0
31/04:00am 15.8 12.5 6.3 53 4.6 NNW 13 20 7 11 1011.4 1011.4 0.0
31/03:30am 16.4 11.9 6.2 51 5.0 NNW 19 26 10 14 1011.4 - 0.0
31/03:00am 17.4 11.9 5.7 46 5.7 NW 24 41 13 22 1011.4 1011.4 0.0
31/02:40am 17.6 11.3 5.5 45 5.9 NW 28 48 15 26 1011.0 - 0.0
31/02:30am 17.5 12.7 5.8 46 5.7 NW 20 37 11 20 1011.3 - 0.0
31/02:00am 17.5 11.7 6.1 47 5.6 WNW 26 48 14 26 1011.5 1011.5 0.0
31/01:38am 17.9 10.7 6.1 46 5.8 WNW 33 52 18 28 1011.4 - 0.0
31/01:30am 17.7 14.0 6.3 47 5.6 NW 15 39 8 21 1011.7 - 0.0
31/01:00am 17.9 13.3 5.5 44 6.0 WNW 19 41 10 22 1012.4 1012.4 0.0
31/12:30am 17.4 13.2 5.7 46 5.7 WNW 17 35 9 19 1012.5 - 0.0
31/12:00am 14.4 13.3 8.6 68 2.9 NW 4 9 2 5 1012.9 1012.9 0.0
 
Date/Time
EST
Tmp

°C
App
Tmp
°C
Dew
Point
°C
Rel
Hum
%
Delta-T

°C
Wind Press
QNH
hPa
Press
MSL
hPa
Rain
since
9 am
mm
Dir
 
Spd
km/h
Gust
km/h
Spd
kts
Gust
kts
30/11:30pm 15.7 14.3 9.6 67 3.2 NNE 7 11 4 6 1013.1 - 0.0
30/11:00pm 15.7 14.7 8.7 63 3.6 N 4 7 2 4 1013.5 1013.5 0.0
30/10:30pm 15.4 14.5 9.3 67 3.1 NE 4 9 2 5 1013.7 - 0.0
30/10:00pm 16.3 15.6 10.2 67 3.2 NE 4 7 2 4 1013.9 1013.9 0.0
30/09:30pm 16.6 14.5 9.8 64 3.6 NE 11 15 6 8 1014.1 - 0.0
30/09:00pm 16.7 15.5 9.6 63 3.7 N 6 11 3 6 1014.2 1014.2 0.0
30/08:30pm 17.2 15.6 8.1 55 4.6 NNW 6 11 3 6 1014.4 - 0.0
30/08:00pm 17.7 15.2 8.0 53 4.9 NW 11 24 6 13 1014.7 1014.7 0.0
30/07:30pm 18.0 14.3 8.0 52 5.1 NW 17 33 9 18 1014.6 - 0.0
30/07:00pm 17.8 14.8 7.5 51 5.2 NW 13 26 7 14 1014.6 1014.6 0.0
30/06:30pm 18.0 15.3 7.4 50 5.4 WNW 11 28 6 15 1014.4 - 0.0
30/06:00pm 18.1 14.3 7.5 50 5.4 WNW 17 33 9 18 1013.9 1013.9 0.0
30/05:30pm 18.1 14.3 7.5 50 5.4 WNW 17 26 9 14 1013.7 - 0.0
30/05:00pm 18.5 13.7 7.3 48 5.7 WNW 22 39 12 21 1013.4 1013.4 0.0
30/04:30pm 19.0 15.2 7.4 47 5.9 WNW 17 33 9 18 1013.5 - 0.0
30/04:00pm 19.2 14.4 7.3 46 6.0 NW 22 39 12 21 1012.8 1012.8 0.0
30/03:49pm 19.0 13.0 7.1 46 6.0 NW 28 46 15 25 1012.5 - 0.0
30/03:30pm 20.0 15.9 7.7 45 6.3 WNW 19 33 10 18 1012.7 - 0.0
30/03:00pm 19.4 14.2 7.2 45 6.2 WNW 24 43 13 23 1012.9 1012.9 0.0
30/02:30pm 19.5 15.6 7.3 45 6.2 WNW 17 32 9 17 1013.0 - 0.0
30/02:00pm 19.8 15.4 7.5 45 6.3 WNW 20 48 11 26 1013.0 1013.0 0.0
30/01:54pm 19.6 13.7 7.4 45 6.2 WNW 28 48 15 26 1013.0 - 0.0
30/01:53pm 19.5 12.7 6.9 44 6.4 WNW 32 48 17 26 1013.0 - 0.0
30/01:30pm 19.6 16.3 8.0 47 6.0 WNW 15 28 8 15 1013.3 - 0.0
30/01:00pm 20.2 16.4 7.6 44 6.5 WNW 17 37 9 20 1013.5 1013.5 0.0
30/12:30pm 20.7 16.9 7.7 43 6.7 NW 17 35 9 19 1013.8 - 0.0
30/12:00pm 20.9 17.9 7.9 43 6.7 WNW 13 26 7 14 1013.9 1013.9 0.0
30/11:30am 20.6 18.5 8.3 45 6.4 NW 9 17 5 9 1014.6 - 0.0
30/11:00am 20.0 17.5 8.4 47 6.0 WNW 11 32 6 17 1015.2 1015.2 0.0
30/10:30am 19.1 14.6 8.4 50 5.5 NW 22 35 12 19 1015.5 - 0.0
30/10:00am 19.0 15.4 8.4 50 5.5 NW 17 26 9 14 1015.8 1015.8 0.0
30/09:30am 18.5 15.2 8.2 51 5.3 WNW 15 33 8 18 1015.9 - 0.0
30/09:00am 18.0 15.4 7.7 51 5.2 W 11 24 6 13 1015.8 1015.8 0.0
30/08:30am 17.5 14.1 7.8 53 4.9 NW 15 28 8 15 1015.6 - 0.0
30/08:00am 16.6 15.8 8.1 57 4.3 NNW 2 6 1 3 1015.2 1015.2 0.0
30/07:30am 15.6 14.2 7.4 58 4.1 N 4 6 2 3 1015.3 - 0.0
30/07:00am 15.1 13.5 6.4 56 4.2 WNW 4 7 2 4 1014.9 1014.9 0.0
30/06:30am 15.8 12.9 6.5 54 4.5 WNW 11 19 6 10 1014.5 - 0.0
30/06:00am 16.4 12.4 6.5 52 4.9 WNW 17 30 9 16 1014.1 1014.1 0.0
30/05:30am 16.4 13.1 6.2 51 5.0 WNW 13 26 7 14 1013.6 - 0.0
30/05:00am 16.5 11.8 6.1 50 5.1 WNW 20 33 11 18 1013.0 1013.0 0.0
30/04:30am 16.9 12.7 5.8 48 5.4 WNW 17 35 9 19 1012.8 - 0.0
30/04:00am 17.1 13.3 6.0 48 5.4 WNW 15 32 8 17 1012.7 1012.7 0.0
30/03:30am 17.0 14.8 5.3 46 5.6 WSW 6 11 3 6 1012.7 - 0.0
30/03:00am 17.4 13.0 5.0 44 5.9 NW 17 44 9 24 1012.0 1012.0 0.0
30/02:30am 17.5 13.4 4.5 42 6.2 WNW 15 28 8 15 1012.2 - 0.0
30/02:00am 17.0 13.2 4.0 42 6.1 WNW 13 24 7 13 1012.3 1012.3 0.0
30/01:30am 16.9 12.7 3.6 41 6.2 WNW 15 28 8 15 1012.8 - 0.0
30/01:00am 17.2 13.3 3.5 40 6.4 WNW 13 20 7 11 1013.1 1013.1 0.0
30/12:30am 17.8 14.1 2.5 36 7.0 WSW 11 26 6 14 1013.1 - 0.0
30/12:00am 18.3 13.5 2.6 35 7.2 WNW 17 32 9 17 1012.7 1012.7 0.0
 
Date/Time
EST
Tmp

°C
App
Tmp
°C
Dew
Point
°C
Rel
Hum
%
Delta-T

°C
Wind Press
QNH
hPa
Press
MSL
hPa
Rain
since
9 am
mm
Dir
 
Spd
km/h
Gust
km/h
Spd
kts
Gust
kts
29/11:30pm 17.9 14.3 3.0 37 6.9 WNW 11 24 6 13 1012.8 - 0.0
29/11:00pm 17.7 14.7 3.9 40 6.5 W 9 20 5 11 1012.9 1012.9 0.0
29/10:30pm 17.5 14.5 4.1 41 6.3 W 9 17 5 9 1013.1 - 0.0
29/10:00pm 17.8 13.7 4.4 41 6.4 W 15 35 8 19 1012.9 1012.9 0.0
29/09:30pm 17.5 14.2 4.5 42 6.2 W 11 26 6 14 1012.9 - 0.0
29/09:00pm 17.8 14.9 4.4 41 6.4 W 9 30 5 16 1012.4 1012.4 0.0
29/08:30pm 17.9 13.8 4.1 40 6.5 WNW 15 28 8 15 1012.5 - 0.0
29/08:00pm 17.7 15.5 3.6 39 6.6 N 4 15 2 8 1012.6 1012.6 0.0
29/07:30pm 17.7 15.2 3.6 39 6.6 WNW 6 19 3 10 1012.5 - 0.0
29/07:00pm 17.6 14.8 3.1 38 6.7 NNW 7 17 4 9 1012.5 1012.5 0.0
29/06:30pm 18.0 14.4 2.7 36 7.0 NW 11 26 6 14 1012.3 - 0.0
29/06:00pm 18.1 15.9 3.2 37 6.9 NNE 4 9 2 5 1012.0 1012.0 0.0
29/05:30pm 18.5 15.3 2.8 35 7.3 NW 9 15 5 8 1011.8 - 0.0
29/05:00pm 18.8 16.8 2.2 33 7.6 WNW 2 9 1 5 1011.2 1011.2 0.0
29/04:30pm 20.4 15.1 1.8 29 8.6 NW 19 44 10 24 1010.8 - 0.0
29/04:00pm 21.0 16.1 2.3 29 8.7 WNW 17 33 9 18 1010.8 1010.8 0.0
29/03:30pm 21.2 16.0 2.5 29 8.8 NW 19 35 10 19 1010.9 - 0.0
29/03:00pm 21.8 17.7 2.5 28 9.1 NW 13 32 7 17 1011.3 1011.3 0.0
29/02:30pm 22.3 19.4 2.4 27 9.4 WNW 7 17 4 9 1011.0 - 0.0
29/02:00pm 22.1 17.4 1.2 25 9.6 WNW 15 28 8 15 1010.4 1010.4 0.0
29/01:30pm 22.1 16.8 1.7 26 9.5 WNW 19 33 10 18 1010.6 - 0.0
29/01:00pm 22.0 16.8 2.7 28 9.2 WNW 19 39 10 21 1011.0 1011.0 0.0
29/12:30pm 22.1 17.3 2.8 28 9.2 WNW 17 32 9 17 1011.6 - 0.0
29/12:00pm 21.2 16.9 3.0 30 8.6 NW 15 28 8 15 1012.4 1012.4 0.0
29/11:30am 18.9 16.4 6.4 44 6.2 ENE 9 15 5 8 1014.0 - 0.0
29/11:00am 18.3 15.3 5.8 44 6.1 N 11 20 6 11 1013.6 1013.6 0.0
29/10:30am 17.7 14.3 3.9 40 6.5 N 11 19 6 10 1014.0 - 0.0
29/10:00am 16.6 12.8 5.9 49 5.2 N 15 26 8 14 1014.1 1014.1 0.0
29/09:30am 15.6 11.8 5.8 52 4.7 N 15 24 8 13 1014.6 - 0.0
29/09:00am 15.0 11.9 5.5 53 4.5 N 11 20 6 11 1015.0 1015.0 0.0
29/08:30am 14.5 11.4 5.6 55 4.2 NNW 11 19 6 10 1015.1 - 0.0
29/08:00am 14.3 10.3 5.1 54 4.3 N 15 22 8 12 1015.0 1015.0 0.0

Latest Capital City Observations: Canberra | Sydney | Melbourne | Brisbane | Adelaide | Perth | Hobart | Darwin

Other Formats:

Comma delimited format used in spreadsheet applications
http://www.bom.gov.au/fwo/IDN60903/IDN60903.94938.axf

JavaScript Object Notation format (JSON) in row-major order
http://www.bom.gov.au/fwo/IDN60903/IDN60903.94938.json